createdAt,value
2018-12-01T00:00:15.446Z,46.83
2018-12-01T00:02:43.676Z,46.53
2018-12-01T00:05:11.903Z,47.70
2018-12-01T00:07:40.130Z,47.63
2018-12-01T00:10:08.372Z,42.70
2018-12-01T00:12:36.602Z,43.77
2018-12-01T00:15:06.923Z,45.17
2018-12-01T00:17:35.346Z,51.67
2018-12-01T00:20:04.226Z,47.33
2018-12-01T00:22:32.456Z,49.23
2018-12-01T00:25:00.712Z,49.70
2018-12-01T00:27:29.166Z,50.30
2018-12-01T00:29:57.404Z,51.13
2018-12-01T00:32:25.669Z,47.60
2018-12-01T00:34:53.902Z,46.77
2018-12-01T00:37:22.085Z,52.40
2018-12-01T00:39:50.288Z,44.93
2018-12-01T00:42:18.505Z,46.53
2018-12-01T00:44:46.743Z,48.80
2018-12-01T00:47:14.940Z,47.33
2018-12-01T00:49:43.352Z,49.47
2018-12-01T00:52:11.549Z,50.00
2018-12-01T00:54:39.963Z,44.80
2018-12-01T00:57:08.152Z,46.43
2018-12-01T00:59:36.585Z,46.93
2018-12-01T01:02:05.240Z,49.17
2018-12-01T01:04:33.420Z,44.43
2018-12-01T01:07:01.633Z,48.87
2018-12-01T01:09:30.046Z,49.03
2018-12-01T01:11:58.469Z,50.03
2018-12-01T01:14:26.665Z,49.97
2018-12-01T01:16:55.095Z,53.67
2018-12-01T01:19:23.315Z,50.13
2018-12-01T01:21:51.773Z,49.07
2018-12-01T01:24:20.002Z,46.33
2018-12-01T01:26:48.194Z,54.30
2018-12-01T01:29:16.401Z,48.33
2018-12-01T01:31:44.607Z,48.73
2018-12-01T01:34:12.814Z,51.47
2018-12-01T01:36:41.064Z,51.53
2018-12-01T01:39:09.297Z,45.27
2018-12-01T01:41:37.493Z,48.80
2018-12-01T01:44:06.147Z,49.27
2018-12-01T01:46:34.377Z,47.23
2018-12-01T01:49:02.596Z,52.13
2018-12-01T01:51:30.862Z,44.43
2018-12-01T01:53:59.311Z,49.70
2018-12-01T01:56:27.517Z,59.50
2018-12-01T01:58:55.706Z,44.40
2018-12-01T02:01:23.894Z,51.80
2018-12-01T02:03:52.118Z,43.63
2018-12-01T02:06:20.343Z,49.57
2018-12-01T02:08:48.784Z,46.70
2018-12-01T02:11:16.980Z,51.33
2018-12-01T02:13:45.190Z,46.00
2018-12-01T02:16:13.381Z,46.37
2018-12-01T02:18:41.891Z,46.03
2018-12-01T02:21:10.131Z,47.63
2018-12-01T02:23:38.383Z,49.57
2018-12-01T02:26:06.635Z,49.67
2018-12-01T02:28:34.879Z,49.10
2018-12-01T02:31:03.128Z,48.73
2018-12-01T02:33:31.329Z,53.30
2018-12-01T02:35:59.530Z,49.43
2018-12-01T02:38:27.721Z,49.57
2018-12-01T02:40:56.215Z,49.60
2018-12-01T02:43:24.669Z,49.23
2018-12-01T02:46:04.229Z,47.97
2018-12-01T02:48:32.819Z,47.23
2018-12-01T02:51:01.034Z,49.93
2018-12-01T02:53:29.275Z,47.13
2018-12-01T02:55:57.949Z,46.33
2018-12-01T02:58:26.204Z,44.63
2018-12-01T03:00:54.447Z,58.23
2018-12-01T03:03:22.719Z,48.37
2018-12-01T03:05:50.901Z,49.60
2018-12-01T03:08:19.085Z,64.37
2018-12-01T03:10:47.290Z,55.20
2018-12-01T03:13:15.487Z,50.87
2018-12-01T03:15:43.921Z,77.40
2018-12-01T03:18:13.717Z,68.17
2018-12-01T03:20:40.320Z,72.23
2018-12-01T03:23:08.519Z,58.77
2018-12-01T03:25:36.737Z,56.47
2018-12-01T03:28:05.118Z,62.23
2018-12-01T03:30:33.306Z,67.27
2018-12-01T03:33:01.679Z,51.03
2018-12-01T03:35:29.882Z,58.30
2018-12-01T03:37:58.109Z,57.10
2018-12-01T03:40:26.281Z,49.60
2018-12-01T03:42:54.449Z,51.27
2018-12-01T03:45:23.075Z,42.30
2018-12-01T03:47:51.258Z,44.83
2018-12-01T03:50:20.968Z,46.83
2018-12-01T03:52:50.079Z,52.13
2018-12-01T03:55:33.368Z,49.23
2018-12-01T03:58:02.478Z,61.53
2018-12-01T04:00:37.014Z,60.37
2018-12-01T04:03:06.277Z,50.00
2018-12-01T04:05:34.507Z,62.83
2018-12-01T04:08:02.722Z,51.83
2018-12-01T04:10:30.911Z,53.87
2018-12-01T04:12:59.156Z,55.33
2018-12-01T04:15:27.376Z,67.27
2018-12-01T04:17:55.817Z,74.97
2018-12-01T04:20:24.051Z,58.93
2018-12-01T04:22:52.271Z,64.23
2018-12-01T04:25:20.557Z,57.57
2018-12-01T04:27:48.968Z,54.87
2018-12-01T04:30:24.527Z,55.57
2018-12-01T04:32:52.732Z,52.40
2018-12-01T04:35:21.840Z,56.07
2018-12-01T04:37:51.343Z,52.33
2018-12-01T04:40:19.557Z,52.90
2018-12-01T04:42:48.104Z,52.20
2018-12-01T04:45:16.609Z,50.73
2018-12-01T04:47:44.945Z,65.13
2018-12-01T04:50:14.294Z,64.20
2018-12-01T04:52:42.573Z,56.57
2018-12-01T04:55:13.382Z,64.13
2018-12-01T04:57:41.571Z,66.67
2018-12-01T05:00:14.313Z,54.87
2018-12-01T05:02:42.512Z,60.77
2018-12-01T05:05:12.288Z,63.07
2018-12-01T05:07:40.472Z,64.53
2018-12-01T05:10:11.045Z,63.07
2018-12-01T05:12:39.233Z,61.67
2018-12-01T05:15:09.492Z,59.83
2018-12-01T05:17:37.935Z,67.37
2018-12-01T05:20:08.764Z,56.70
2018-12-01T05:22:36.936Z,63.17
2018-12-01T05:25:07.021Z,67.47
2018-12-01T05:27:35.224Z,69.33
2018-12-01T05:30:03.435Z,67.13
2018-12-01T05:32:31.632Z,64.10
2018-12-01T05:34:59.805Z,65.30
2018-12-01T05:37:27.969Z,72.43
2018-12-01T05:39:56.177Z,54.80
2018-12-01T05:42:24.369Z,67.00
2018-12-01T05:44:52.552Z,69.23
2018-12-01T05:47:20.748Z,70.33
2018-12-01T05:49:48.951Z,64.70
2018-12-01T05:52:17.361Z,72.83
2018-12-01T05:54:45.560Z,66.67
2018-12-01T05:57:13.791Z,67.50
2018-12-01T05:59:41.971Z,77.00
2018-12-01T06:02:10.150Z,68.30
2018-12-01T06:04:38.409Z,61.70
2018-12-01T06:07:06.647Z,63.70
2018-12-01T06:09:34.817Z,62.17
2018-12-01T06:12:03.074Z,59.20
2018-12-01T06:14:31.231Z,57.67
2018-12-01T06:16:59.435Z,55.93
2018-12-01T06:19:27.613Z,50.97
2018-12-01T06:21:55.785Z,60.27
2018-12-01T06:24:24.023Z,68.33
2018-12-01T06:26:52.417Z,61.50
2018-12-01T06:29:20.615Z,59.07
2018-12-01T06:31:48.790Z,63.50
2018-12-01T06:34:16.973Z,67.70
2018-12-01T06:36:45.152Z,64.30
2018-12-01T06:39:13.322Z,72.93
2018-12-01T06:41:41.492Z,63.73
2018-12-01T06:44:09.883Z,68.53
2018-12-01T06:46:38.100Z,63.17
2018-12-01T06:49:06.307Z,70.60
2018-12-01T06:51:34.477Z,70.37
2018-12-01T06:54:02.873Z,54.70
2018-12-01T06:56:31.865Z,60.33
2018-12-01T06:59:00.045Z,59.13
2018-12-01T07:01:28.222Z,63.27
2018-12-01T07:03:56.397Z,68.33
2018-12-01T07:06:24.880Z,62.47
2018-12-01T07:08:53.294Z,59.37
2018-12-01T07:11:21.492Z,73.27
2018-12-01T07:13:49.713Z,71.50
2018-12-01T07:16:17.904Z,75.43
2018-12-01T07:18:57.413Z,67.07
2018-12-01T07:21:25.631Z,71.07
2018-12-01T07:23:53.810Z,72.63
2018-12-01T07:26:22.019Z,70.67
2018-12-01T07:28:50.210Z,64.73
2018-12-01T07:31:18.441Z,74.30
2018-12-01T07:33:46.623Z,63.43
2018-12-01T07:36:14.828Z,61.90
2018-12-01T07:38:43.059Z,73.13
2018-12-01T07:41:11.271Z,65.10
2018-12-01T07:43:39.512Z,74.53
2018-12-01T07:46:07.708Z,80.97
2018-12-01T07:48:36.161Z,66.33
2018-12-01T07:51:04.393Z,63.27
2018-12-01T07:53:32.593Z,64.77
2018-12-01T07:56:01.067Z,61.27
2018-12-01T07:58:29.263Z,55.63
2018-12-01T08:00:57.883Z,62.53
2018-12-01T08:03:26.884Z,57.77
2018-12-01T08:05:54.336Z,66.03
2018-12-01T08:08:22.521Z,63.53
2018-12-01T08:10:50.787Z,61.37
2018-12-01T08:13:18.984Z,56.60
2018-12-01T08:15:47.174Z,75.90
2018-12-01T08:18:15.347Z,67.17
2018-12-01T08:20:43.541Z,69.07
2018-12-01T08:23:11.713Z,80.90
2018-12-01T08:25:39.920Z,79.70
2018-12-01T08:28:09.635Z,65.70
2018-12-01T08:30:37.996Z,55.33
2018-12-01T08:33:06.205Z,78.47
2018-12-01T08:35:34.373Z,80.50
2018-12-01T08:38:02.552Z,108.10
2018-12-01T08:40:31.689Z,108.30
2018-12-01T08:43:00.019Z,87.20
2018-12-01T08:45:28.478Z,116.67
2018-12-01T08:47:56.652Z,81.53
2018-12-01T08:50:24.828Z,75.63
2018-12-01T08:52:53.304Z,92.50
2018-12-01T08:55:22.498Z,73.83
2018-12-01T08:57:51.222Z,76.40
2018-12-01T09:00:30.451Z,70.13
2018-12-01T09:03:01.633Z,77.00
2018-12-01T09:05:29.894Z,60.67
2018-12-01T09:07:58.080Z,95.23
2018-12-01T09:10:26.261Z,83.07
2018-12-01T09:12:54.429Z,105.40
2018-12-01T09:15:22.602Z,105.13
2018-12-01T09:17:50.808Z,81.07
2018-12-01T09:20:19.011Z,73.87
2018-12-01T09:22:47.208Z,76.47
2018-12-01T09:25:17.446Z,82.10
2018-12-01T09:27:45.910Z,64.30
2018-12-01T09:30:20.275Z,79.57
2018-12-01T09:32:48.468Z,70.50
2018-12-01T09:35:16.654Z,81.63
2018-12-01T09:37:44.817Z,79.97
2018-12-01T09:40:14.073Z,72.30
2018-12-01T09:42:42.411Z,75.13
2018-12-01T09:45:11.676Z,68.77
2018-12-01T09:47:40.029Z,61.40
2018-12-01T09:50:09.741Z,79.27
2018-12-01T09:52:37.913Z,72.90
2018-12-01T09:55:08.685Z,62.40
2018-12-01T09:57:36.851Z,59.77
2018-12-01T10:00:11.243Z,69.17
2018-12-01T10:02:39.568Z,63.33
2018-12-01T10:05:09.322Z,71.13
2018-12-01T10:07:37.569Z,62.57
2018-12-01T10:10:08.713Z,65.50
2018-12-01T10:12:36.887Z,80.93
2018-12-01T10:15:08.767Z,68.90
2018-12-01T10:17:36.960Z,60.43
2018-12-01T10:20:06.583Z,80.20
2018-12-01T10:22:34.772Z,67.97
2018-12-01T10:25:02.949Z,92.27
2018-12-01T10:27:31.093Z,60.10
2018-12-01T10:29:59.256Z,64.13
2018-12-01T10:32:27.428Z,60.30
2018-12-01T10:34:55.609Z,50.93
2018-12-01T10:37:23.823Z,49.77
2018-12-01T10:39:51.998Z,56.07
2018-12-01T10:42:20.157Z,51.67
2018-12-01T10:44:48.364Z,49.33
2018-12-01T10:47:16.597Z,58.73
2018-12-01T10:49:45.175Z,59.50
2018-12-01T10:52:13.870Z,57.70
2018-12-01T10:54:41.592Z,57.60
2018-12-01T10:57:09.784Z,47.87
2018-12-01T10:59:38.012Z,45.63
2018-12-01T11:02:12.199Z,41.23
2018-12-01T11:04:40.537Z,45.93
2018-12-01T11:07:08.792Z,43.63
2018-12-01T11:09:37.213Z,55.07
2018-12-01T11:12:05.424Z,53.70
2018-12-01T11:14:33.592Z,45.10
2018-12-01T11:17:01.820Z,51.20
2018-12-01T11:19:30.058Z,54.53
2018-12-01T11:21:58.253Z,49.63
2018-12-01T11:24:26.480Z,46.33
2018-12-01T11:26:54.713Z,39.50
2018-12-01T11:29:22.942Z,50.87
2018-12-01T11:31:51.146Z,42.77
2018-12-01T11:34:19.549Z,38.70
2018-12-01T11:36:47.745Z,41.63
2018-12-01T11:39:15.980Z,45.77
2018-12-01T11:41:44.206Z,44.43
2018-12-01T11:44:12.386Z,43.93
2018-12-01T11:46:40.623Z,42.77
2018-12-01T11:49:09.542Z,40.53
2018-12-01T11:51:38.333Z,43.77
2018-12-01T11:54:06.528Z,42.83
2018-12-01T11:56:34.717Z,37.67
2018-12-01T11:59:02.885Z,40.33
2018-12-01T12:01:31.096Z,43.57
2018-12-01T12:03:59.285Z,48.03
2018-12-01T12:06:27.561Z,37.10
2018-12-01T12:08:55.748Z,64.57
2018-12-01T12:11:23.954Z,46.43
2018-12-01T12:13:52.373Z,47.63
2018-12-01T12:16:20.645Z,49.00
2018-12-01T12:18:49.197Z,46.77
2018-12-01T12:21:17.424Z,49.20
2018-12-01T12:23:45.868Z,57.83
2018-12-01T12:26:14.115Z,58.90
2018-12-01T12:28:42.331Z,59.27
2018-12-01T12:31:10.795Z,49.27
2018-12-01T12:33:38.997Z,54.20
2018-12-01T12:36:07.197Z,58.70
2018-12-01T12:38:35.447Z,57.53
2018-12-01T12:41:03.841Z,54.97
2018-12-01T12:43:32.199Z,66.87
2018-12-01T12:46:00.384Z,66.17
2018-12-01T12:48:30.767Z,61.87
2018-12-01T12:50:58.956Z,69.83
2018-12-01T12:53:27.441Z,58.60
2018-12-01T12:55:55.577Z,49.23
2018-12-01T12:58:23.998Z,43.97
2018-12-01T13:00:52.169Z,46.77
2018-12-01T13:03:20.400Z,47.73
2018-12-01T13:05:48.642Z,45.73
2018-12-01T13:08:19.051Z,47.00
2018-12-01T13:10:47.309Z,44.20
2018-12-01T13:13:15.501Z,45.47
2018-12-01T13:15:43.668Z,45.00
2018-12-01T13:18:12.952Z,44.70
2018-12-01T13:20:42.452Z,45.83
2018-12-01T13:23:10.680Z,46.83
2018-12-01T13:25:40.200Z,37.90
2018-12-01T13:28:11.773Z,46.40
2018-12-01T13:30:48.665Z,42.17
2018-12-01T13:33:16.856Z,45.00
2018-12-01T13:35:45.050Z,44.17
2018-12-01T13:38:13.229Z,52.53
2018-12-01T13:40:41.415Z,67.93
2018-12-01T13:43:09.597Z,54.67
2018-12-01T13:45:38.022Z,111.30
2018-12-01T13:48:07.122Z,66.00
2018-12-01T13:50:35.292Z,224.50
2018-12-01T13:53:05.646Z,202.20
2018-12-01T13:55:33.830Z,173.30
2018-12-01T13:58:02.055Z,264.80
2018-12-01T14:00:30.299Z,152.33
2018-12-01T14:02:58.534Z,117.20
2018-12-01T14:05:26.724Z,187.23
2018-12-01T14:07:54.901Z,229.90
2018-12-01T14:10:26.212Z,200.20
2018-12-01T14:13:00.590Z,177.40
2018-12-01T14:15:28.823Z,149.77
2018-12-01T14:17:57.043Z,136.50
2018-12-01T14:20:25.256Z,238.00
2018-12-01T14:22:53.463Z,225.40
2018-12-01T14:25:22.173Z,197.23
2018-12-01T14:28:01.221Z,222.90
2018-12-01T14:30:29.396Z,142.97
2018-12-01T14:32:57.558Z,103.27
2018-12-01T14:35:29.027Z,201.83
2018-12-01T14:38:04.364Z,142.90
2018-12-01T14:40:32.534Z,107.03
2018-12-01T14:43:00.737Z,124.53
2018-12-01T14:45:28.937Z,182.90
2018-12-01T14:47:57.129Z,118.17
2018-12-01T14:50:25.371Z,89.43
2018-12-01T14:52:53.567Z,83.87
2018-12-01T14:55:21.739Z,124.80
2018-12-01T14:57:49.988Z,101.23
2018-12-01T15:00:20.133Z,135.90
2018-12-01T15:02:48.710Z,89.57
2018-12-01T15:05:16.923Z,56.20
2018-12-01T15:07:45.585Z,50.90
2018-12-01T15:10:15.901Z,59.43
2018-12-01T15:12:44.081Z,77.23
2018-12-01T15:15:13.368Z,64.00
2018-12-01T15:17:41.665Z,83.30
2018-12-01T15:20:13.928Z,74.03
2018-12-01T15:22:42.489Z,149.50
2018-12-01T15:25:12.614Z,118.63
2018-12-01T15:27:41.005Z,114.97
2018-12-01T15:30:16.379Z,80.60
2018-12-01T15:32:47.577Z,95.70
2018-12-01T15:35:15.847Z,99.80
2018-12-01T15:37:44.964Z,92.00
2018-12-01T15:40:16.072Z,141.33
2018-12-01T15:42:44.262Z,120.17
2018-12-01T15:45:14.844Z,69.93
2018-12-01T15:47:43.106Z,70.77
2018-12-01T15:50:13.686Z,74.30
2018-12-01T15:52:42.499Z,137.60
2018-12-01T15:55:11.787Z,88.27
2018-12-01T15:57:40.012Z,146.17
2018-12-01T16:00:18.842Z,76.30
2018-12-01T16:02:47.573Z,123.40
2018-12-01T16:05:16.698Z,95.13
2018-12-01T16:07:45.473Z,118.53
2018-12-01T16:10:15.310Z,77.63
2018-12-01T16:12:44.266Z,136.00
2018-12-01T16:15:15.965Z,139.23
2018-12-01T16:17:44.137Z,199.73
2018-12-01T16:20:13.536Z,106.93
2018-12-01T16:22:41.721Z,116.47
2018-12-01T16:25:13.223Z,115.43
2018-12-01T16:27:42.112Z,101.67
2018-12-01T16:30:17.384Z,247.07
2018-12-01T16:32:46.171Z,215.57
2018-12-01T16:35:14.322Z,244.83
2018-12-01T16:37:42.509Z,300.57
2018-12-01T16:40:14.549Z,272.43
2018-12-01T16:42:42.721Z,128.00
2018-12-01T16:45:12.653Z,216.17
2018-12-01T16:47:40.836Z,114.83
2018-12-01T16:50:11.429Z,138.80
2018-12-01T16:52:39.728Z,157.33
2018-12-01T16:55:10.987Z,155.20
2018-12-01T16:57:39.151Z,113.23
2018-12-01T17:00:11.688Z,109.57
2018-12-01T17:02:39.845Z,180.37
2018-12-01T17:05:09.630Z,180.80
2018-12-01T17:07:37.832Z,133.13
2018-12-01T17:10:15.963Z,246.13
2018-12-01T17:12:44.757Z,198.63
2018-12-01T17:15:15.587Z,157.33
2018-12-01T17:17:44.035Z,103.73
2018-12-01T17:20:13.272Z,129.30
2018-12-01T17:22:43.456Z,94.93
2018-12-01T17:25:15.548Z,111.97
2018-12-01T17:27:44.164Z,89.00
2018-12-01T17:30:22.058Z,98.37
2018-12-01T17:32:50.545Z,110.87
2018-12-01T17:35:21.241Z,265.80
2018-12-01T17:37:50.795Z,271.40
2018-12-01T17:40:36.988Z,268.73
2018-12-01T17:43:07.396Z,160.93
2018-12-01T17:45:36.059Z,186.93
2018-12-01T17:48:04.310Z,283.97
2018-12-01T17:50:32.516Z,412.90
2018-12-01T17:53:01.152Z,299.90
2018-12-01T17:55:30.096Z,287.17
2018-12-01T17:57:58.613Z,195.00
2018-12-01T18:00:28.205Z,207.17
2018-12-01T18:03:00.142Z,401.33
2018-12-01T18:05:31.898Z,126.63
2018-12-01T18:08:00.064Z,159.80
2018-12-01T18:10:28.228Z,122.93
2018-12-01T18:12:56.394Z,129.50
2018-12-01T18:15:24.548Z,179.90
2018-12-01T18:17:52.700Z,86.37
2018-12-01T18:20:21.573Z,150.27
2018-12-01T18:22:51.557Z,187.50
2018-12-01T18:25:19.709Z,150.07
2018-12-01T18:27:48.937Z,60.73
2018-12-01T18:30:24.052Z,167.60
2018-12-01T18:32:53.069Z,176.17
2018-12-01T18:35:21.229Z,114.20
2018-12-01T18:37:49.467Z,87.43
2018-12-01T18:40:20.042Z,75.80
2018-12-01T18:42:48.230Z,126.70
2018-12-01T18:45:17.729Z,108.17
2018-12-01T18:47:45.941Z,119.10
2018-12-01T18:50:18.079Z,64.17
2018-12-01T18:52:52.720Z,114.87
2018-12-01T18:55:21.168Z,100.57
2018-12-01T18:57:49.350Z,119.63
2018-12-01T19:00:19.354Z,88.43
2018-12-01T19:02:47.540Z,95.00
2018-12-01T19:05:15.763Z,97.07
2018-12-01T19:07:44.219Z,128.83
2018-12-01T19:10:14.312Z,220.87
2018-12-01T19:12:42.508Z,422.57
2018-12-01T19:15:13.414Z,116.57
2018-12-01T19:17:41.767Z,195.53
2018-12-01T19:20:12.305Z,128.50
2018-12-01T19:22:40.835Z,140.60
2018-12-01T19:25:11.437Z,134.20
2018-12-01T19:27:39.645Z,57.07
2018-12-01T19:30:14.135Z,88.43
2018-12-01T19:32:43.430Z,190.77
2018-12-01T19:35:13.815Z,97.87
2018-12-01T19:37:42.247Z,86.87
2018-12-01T19:40:18.837Z,106.87
2018-12-01T19:42:47.110Z,71.87
2018-12-01T19:45:15.304Z,147.77
2018-12-01T19:47:43.501Z,45.73
2018-12-01T19:50:15.740Z,82.33
2018-12-01T19:52:43.920Z,95.20
2018-12-01T19:55:13.219Z,159.47
2018-12-01T19:57:41.661Z,94.67
2018-12-01T20:00:12.537Z,69.73
2018-12-01T20:02:40.729Z,96.40
2018-12-01T20:05:11.281Z,78.70
2018-12-01T20:07:39.493Z,49.07
2018-12-01T20:10:14.177Z,63.13
2018-12-01T20:12:43.951Z,76.03
2018-12-01T20:15:16.873Z,91.97
2018-12-01T20:17:45.058Z,67.80
2018-12-01T20:20:13.259Z,51.40
2018-12-01T20:22:41.457Z,56.47
2018-12-01T20:25:11.464Z,68.53
2018-12-01T20:27:39.641Z,50.47
2018-12-01T20:30:25.801Z,45.80
2018-12-01T20:32:53.982Z,51.07
2018-12-01T20:35:27.433Z,56.03
2018-12-01T20:38:00.108Z,48.00
2018-12-01T20:40:28.268Z,56.77
2018-12-01T20:42:56.677Z,64.63
2018-12-01T20:45:24.832Z,40.87
2018-12-01T20:47:53.100Z,67.97
2018-12-01T20:50:21.278Z,52.93
2018-12-01T20:52:49.437Z,73.07
2018-12-01T20:55:21.593Z,34.97
2018-12-01T20:57:52.578Z,37.20
2018-12-01T21:00:20.743Z,54.60
2018-12-01T21:02:48.985Z,73.83
2018-12-01T21:05:20.506Z,50.13
2018-12-01T21:07:48.788Z,52.87
2018-12-01T21:10:19.809Z,35.90
2018-12-01T21:12:48.109Z,71.00
2018-12-01T21:15:16.308Z,32.30
2018-12-01T21:17:44.901Z,40.53
2018-12-01T21:20:14.416Z,41.90
2018-12-01T21:22:47.209Z,53.13
2018-12-01T21:25:18.038Z,47.67
2018-12-01T21:27:46.287Z,57.73
2018-12-01T21:30:17.055Z,51.53
2018-12-01T21:32:46.161Z,45.83
2018-12-01T21:35:14.426Z,48.50
2018-12-01T21:37:43.109Z,52.40
2018-12-01T21:40:15.911Z,52.37
2018-12-01T21:42:44.354Z,53.97
2018-12-01T21:45:14.800Z,49.67
2018-12-01T21:47:43.073Z,53.60
2018-12-01T21:50:15.516Z,37.50
2018-12-01T21:52:45.885Z,49.67
2018-12-01T21:55:14.115Z,45.97
2018-12-01T21:57:43.674Z,39.50
2018-12-01T22:00:16.237Z,53.50
2018-12-01T22:02:45.841Z,38.07
2018-12-01T22:05:16.963Z,39.27
2018-12-01T22:07:45.145Z,35.90
2018-12-01T22:10:14.764Z,49.97
2018-12-01T22:12:42.949Z,39.77
2018-12-01T22:15:16.018Z,43.50
2018-12-01T22:17:44.486Z,32.43
2018-12-01T22:20:15.016Z,27.87
2018-12-01T22:22:43.425Z,60.80
2018-12-01T22:25:12.116Z,48.27
2018-12-01T22:27:40.315Z,46.70
2018-12-01T22:30:16.332Z,31.20
2018-12-01T22:32:47.400Z,28.87
2018-12-01T22:35:19.782Z,32.00
2018-12-01T22:37:48.045Z,47.40
2018-12-01T22:40:18.946Z,27.33
2018-12-01T22:42:47.525Z,35.53
2018-12-01T22:45:15.727Z,28.00
2018-12-01T22:47:43.910Z,29.40
2018-12-01T22:50:15.220Z,26.70
2018-12-01T22:52:43.442Z,26.73
2018-12-01T22:55:13.361Z,31.07
2018-12-01T22:57:43.174Z,33.50
2018-12-01T23:00:19.309Z,27.30
2018-12-01T23:02:47.521Z,28.80
2018-12-01T23:05:15.689Z,24.63
2018-12-01T23:07:44.056Z,27.67
2018-12-01T23:10:14.288Z,30.67
2018-12-01T23:12:43.232Z,24.53
2018-12-01T23:15:16.525Z,29.37
2018-12-01T23:17:46.715Z,33.87
2018-12-01T23:20:19.449Z,26.70
2018-12-01T23:22:48.301Z,30.13
2018-12-01T23:25:16.520Z,30.10
2018-12-01T23:27:44.723Z,30.73
2018-12-01T23:30:19.624Z,28.23
2018-12-01T23:32:49.940Z,29.13
2018-12-01T23:35:18.108Z,34.67
2018-12-01T23:37:46.269Z,26.50
2018-12-01T23:40:15.069Z,26.13
2018-12-01T23:42:43.229Z,23.03
2018-12-01T23:45:20.766Z,27.20
2018-12-01T23:47:49.395Z,27.80
2018-12-01T23:50:19.500Z,27.83
2018-12-01T23:52:49.821Z,32.30
2018-12-01T23:55:18.006Z,27.70
2018-12-01T23:57:46.152Z,35.57
